Time;durP1;ratioP1;P1;durP2;ratioP2;P2;SDS_P1;SDS_P2;PMS_P1;PMS_P2;Temp;Humidity;BMP_temperature;BMP_pressure;BME280_temperature;BME280_humidity;BME280_pressure;Samples;Min_cycle;Max_cycle;Signal;HPM_P1;HPM_P2
2023/11/28 00:01:45;117054.00;0.39;203.00;0.00;0.00;0.62;;;;;9.10;1.00;;;;;;2276415;61;1665;-89
2023/11/28 00:04:12;67671.00;0.23;117.74;0.00;0.00;0.62;;;;;8.90;1.00;;;;;;2276365;61;1911;-87
2023/11/28 00:06:41;106491.00;0.35;184.77;0.00;0.00;0.62;;;;;8.80;1.00;;;;;;2276445;61;1273;-87
2023/11/28 00:09:08;484936.00;1.62;835.89;34611.00;0.12;60.56;;;;;8.80;1.00;;;;;;2276437;61;988;-87
2023/11/28 00:11:35;1348589.00;4.50;2361.31;82464.00;0.27;143.29;;;;;8.40;1.00;;;;;;2276398;61;1047;-87
2023/11/28 00:16:31;1367231.00;4.56;2395.69;87582.00;0.29;152.13;;;;;8.50;1.00;;;;;;2278606;61;1300;-88
2023/11/28 00:18:58;1273943.00;4.25;2224.50;85947.00;0.29;149.31;;;;;8.70;1.00;;;;;;2276395;61;894;-89
2023/11/28 00:21:25;1439201.00;4.80;2529.23;99784.00;0.33;173.20;;;;;8.60;1.00;;;;;;2276322;61;1016;-88
2023/11/28 00:23:53;1080585.00;3.60;1875.74;138545.00;0.46;240.06;;;;;8.60;1.00;;;;;;2276207;61;1998;-87
2023/11/28 00:26:20;1265073.00;4.22;2208.33;162453.00;0.54;281.27;;;;;8.70;1.00;;;;;;2276225;61;1367;-86
2023/11/28 00:28:47;1136620.00;3.79;1976.04;158767.00;0.53;274.91;;;;;9.00;1.00;;;;;;2276279;61;1686;-87
2023/11/28 00:31:14;1154379.00;3.85;2007.95;150768.00;0.50;261.13;;;;;9.30;1.00;;;;;;2276266;61;980;-86
2023/11/28 00:33:41;1361252.00;4.54;2384.65;218624.00;0.73;377.98;;;;;9.10;1.00;;;;;;2276244;61;1012;-87
2023/11/28 00:36:08;1147532.00;3.83;1995.64;136608.00;0.46;236.72;;;;;9.00;1.00;;;;;;2276264;61;1584;-87
2023/11/28 00:41:06;1332618.00;4.44;2331.93;121925.00;0.41;211.40;;;;;8.90;1.00;;;;;;2281729;60;1322;-86
2023/11/28 00:43:34;1290293.00;4.30;2254.35;154282.00;0.51;267.19;;;;;9.00;1.00;;;;;;2280202;60;2020;-86
2023/11/28 00:46:01;1222033.00;4.07;2130.11;132445.00;0.44;229.55;;;;;8.80;1.00;;;;;;2277561;60;1751;-88
2023/11/28 00:48:28;117996240.00;393.32;66548604.00;126132.00;0.42;218.66;;;;;8.60;1.00;;;;;;2276161;61;1077;-88
2023/11/28 00:53:23;1212712.00;4.04;2113.22;171039.00;0.57;296.06;;;;;8.90;1.00;;;;;;2282175;60;1394;-88
2023/11/28 00:55:50;853732.00;2.85;1475.00;128399.00;0.43;222.57;;;;;9.10;1.00;;;;;;2277815;60;1731;-89
2023/11/28 00:58:18;379120.00;1.26;653.91;89712.00;0.30;155.81;;;;;9.30;1.00;;;;;;2276313;61;1030;-86
2023/11/28 01:00:45;483602.00;1.61;833.60;94994.00;0.32;164.93;;;;;9.20;1.00;;;;;;2276202;61;988;-88
2023/11/28 01:03:12;427761.00;1.43;737.54;89196.00;0.30;154.92;;;;;9.10;1.00;;;;;;2276154;61;1919;-88
2023/11/28 01:05:39;479298.00;1.60;826.19;91936.00;0.31;159.65;;;;;9.00;1.00;;;;;;2276147;61;1360;-88
2023/11/28 01:08:06;300973.00;1.00;519.59;77775.00;0.26;135.19;;;;;8.70;1.00;;;;;;2276151;61;999;-88
2023/11/28 01:10:33;257002.00;0.86;443.99;86374.00;0.29;150.05;;;;;8.50;1.00;;;;;;2276276;61;988;-87
2023/11/28 01:13:00;147797.00;0.49;256.01;0.00;0.00;0.62;;;;;8.70;1.00;;;;;;2276079;61;1090;-89
2023/11/28 01:15:28;13566.00;0.05;24.13;0.00;0.00;0.62;;;;;8.70;1.00;;;;;;2275996;61;1602;-87
2023/11/28 01:17:55;26947.00;0.09;47.30;0.00;0.00;0.62;;;;;8.80;1.00;;;;;;2276213;61;909;-88
2023/11/28 01:20:22;0.00;0.00;0.62;0.00;0.00;0.62;;;;;9.00;1.00;;;;;;2276208;61;962;-87
2023/11/28 01:22:51;54409.00;0.18;94.81;0.00;0.00;0.62;;;;;8.90;1.00;;;;;;2276064;61;1087;-88
2023/11/28 01:25:18;218140.00;0.73;377.14;0.00;0.00;0.62;;;;;9.00;1.00;;;;;;2275970;61;1927;-88
2023/11/28 01:27:45;79478.00;0.26;138.14;0.00;0.00;0.62;;;;;8.60;1.00;;;;;;2276127;61;1088;-88
2023/11/28 01:30:13;26500.00;0.09;46.52;0.00;0.00;0.62;;;;;8.50;1.00;;;;;;2276130;61;1708;-89
2023/11/28 01:32:41;242123.00;0.81;418.40;0.00;0.00;0.62;;;;;8.20;1.00;;;;;;2276072;61;1039;-87
2023/11/28 01:35:09;43371.00;0.14;75.72;0.00;0.00;0.62;;;;;7.90;1.00;;;;;;2283361;55;3770;-88
2023/11/28 01:37:36;17499.00;0.06;30.94;0.00;0.00;0.62;;;;;8.00;1.00;;;;;;2275954;61;2252;-86
2023/11/28 01:40:04;37347.00;0.12;65.30;0.00;0.00;0.62;;;;;8.30;1.00;;;;;;2276123;61;1064;-88
2023/11/28 01:42:31;180334.00;0.60;312.06;0.00;0.00;0.62;;;;;8.20;1.00;;;;;;2276073;61;936;-88
2023/11/28 01:49:58;66958.00;0.22;116.50;0.00;0.00;0.62;;;;;9.00;1.00;;;;;;2281868;60;1371;-88
2023/11/28 01:52:25;152528.00;0.51;264.16;0.00;0.00;0.62;;;;;9.30;1.00;;;;;;2280074;60;1548;-86
2023/11/28 01:54:51;40218.00;0.13;70.27;0.00;0.00;0.62;;;;;9.50;1.00;;;;;;2279564;60;1226;-87
2023/11/28 01:57:19;52710.00;0.18;91.87;0.00;0.00;0.62;;;;;9.00;1.00;;;;;;2276056;61;981;-87
2023/11/28 01:59:48;144951.00;0.48;251.11;0.00;0.00;0.62;;;;;9.10;1.00;;;;;;2276056;61;1666;-86
2023/11/28 02:04:49;181806.00;0.61;314.60;0.00;0.00;0.62;;;;;9.80;1.00;;;;;;2281142;60;1895;-87
2023/11/28 02:07:18;175563.00;0.59;303.85;0.00;0.00;0.62;;;;;9.90;1.00;;;;;;2275948;61;2237;-88
2023/11/28 02:09:45;21566.00;0.07;37.98;0.00;0.00;0.62;;;;;10.00;1.00;;;;;;2275843;61;1160;-87
2023/11/28 02:12:12;105394.00;0.35;182.88;0.00;0.00;0.62;;;;;9.90;1.00;;;;;;2275714;61;970;-86
2023/11/28 02:14:43;129743.00;0.43;224.89;0.00;0.00;0.62;;;;;10.00;1.00;;;;;;2275793;61;1225;-86
2023/11/28 02:17:10;258746.00;0.86;446.99;15655.00;0.05;27.75;;;;;10.10;1.00;;;;;;2276055;61;1078;-87
2023/11/28 02:19:37;161249.00;0.54;279.19;0.00;0.00;0.62;;;;;10.00;1.00;;;;;;2275984;61;1082;-87
2023/11/28 02:24:41;140588.00;0.47;243.58;0.00;0.00;0.62;;;;;10.20;1.00;;;;;;2282101;61;1957;-89
2023/11/28 02:27:09;75639.00;0.25;131.50;0.00;0.00;0.62;;;;;10.10;1.00;;;;;;2275967;61;1558;-86
2023/11/28 02:29:36;63452.00;0.21;110.44;0.00;0.00;0.62;;;;;9.80;1.00;;;;;;2275961;61;1706;-87
2023/11/28 02:32:03;9824.00;0.03;17.64;0.00;0.00;0.62;;;;;9.70;1.00;;;;;;2275991;61;1042;-86
2023/11/28 02:34:29;0.00;0.00;0.62;0.00;0.00;0.62;;;;;9.70;1.00;;;;;;2275988;61;905;-87
2023/11/28 02:36:56;179678.00;0.60;310.94;6050.00;0.02;11.11;;;;;9.60;1.00;;;;;;2276015;61;1187;-87
2023/11/28 02:39:23;29184.00;0.10;51.17;0.00;0.00;0.62;;;;;9.20;1.00;;;;;;2275895;61;943;-87
2023/11/28 02:41:50;43209.00;0.14;75.44;0.00;0.00;0.62;;;;;9.20;1.00;;;;;;2275914;61;957;-87
2023/11/28 02:44:18;32753.00;0.11;57.35;0.00;0.00;0.62;;;;;9.20;1.00;;;;;;2275865;61;1992;-86
2023/11/28 02:46:45;214258.00;0.71;370.46;4870.00;0.02;9.06;;;;;9.40;1.00;;;;;;2275846;61;1452;-89
2023/11/28 02:49:12;828837.00;2.76;1431.46;85743.00;0.29;148.96;;;;;9.60;1.00;;;;;;2276634;61;894;-87
2023/11/28 02:51:39;894815.00;2.98;1547.02;109221.00;0.36;189.49;;;;;9.10;1.00;;;;;;2276609;61;1005;-86
2023/11/28 02:54:06;861140.00;2.87;1487.97;132281.00;0.44;229.26;;;;;9.20;1.00;;;;;;2276606;61;1017;-87
2023/11/28 02:56:32;764759.00;2.55;1319.73;7678.00;0.03;13.93;;;;;9.40;1.00;;;;;;2276644;61;1393;-86
2023/11/28 02:58:59;1588106.00;5.29;2810.03;176741.00;0.59;305.88;;;;;9.30;1.00;;;;;;2276488;61;1048;-88
2023/11/28 03:01:28;1359707.00;4.53;2381.80;227925.00;0.76;393.98;;;;;9.20;1.00;;;;;;2276532;61;1056;-87
2023/11/28 03:03:54;119154456.00;397.18;68529376.00;116655.00;0.39;202.31;;;;;9.50;1.00;;;;;;2276552;61;1923;-87
2023/11/28 03:06:21;321263.00;1.07;554.47;91832.00;0.31;159.47;;;;;9.40;1.00;;;;;;2276484;61;1194;-86
2023/11/28 03:08:48;449581.00;1.50;775.06;95686.00;0.32;166.12;;;;;9.60;1.00;;;;;;2276568;61;1039;-86
2023/11/28 03:11:15;125902.00;0.42;218.26;0.00;0.00;0.62;;;;;9.70;1.00;;;;;;2276590;61;1000;-87
2023/11/28 03:13:42;65770.00;0.22;114.45;0.00;0.00;0.62;;;;;9.80;1.00;;;;;;2276591;61;922;-87
2023/11/28 03:16:10;0.00;0.00;0.62;0.00;0.00;0.62;;;;;10.30;1.00;;;;;;2276509;61;1312;-87
2023/11/28 03:18:38;0.00;0.00;0.62;0.00;0.00;0.62;;;;;10.20;1.00;;;;;;2276620;61;976;-86
2023/11/28 03:21:06;6263.00;0.02;11.47;0.00;0.00;0.62;;;;;10.30;1.00;;;;;;2276511;61;1648;-88
2023/11/28 03:23:33;12625.00;0.04;22.50;0.00;0.00;0.62;;;;;10.30;1.00;;;;;;2276505;61;1098;-86
2023/11/28 03:26:00;115051.00;0.38;199.54;0.00;0.00;0.62;;;;;9.90;1.00;;;;;;2276484;61;2195;-89
2023/11/28 03:28:27;74214.00;0.25;129.04;0.00;0.00;0.62;;;;;9.70;1.00;;;;;;2276509;61;904;-88
2023/11/28 03:30:54;5755.00;0.02;10.59;0.00;0.00;0.62;;;;;9.50;1.00;;;;;;2276498;61;1005;-88
2023/11/28 03:33:20;29703.00;0.10;52.07;0.00;0.00;0.62;;;;;9.30;1.00;;;;;;2276489;61;1005;-86
2023/11/28 03:35:49;53083.00;0.18;92.52;0.00;0.00;0.62;;;;;9.20;1.00;;;;;;2276463;61;1357;-88
2023/11/28 03:38:15;174789.00;0.58;302.52;0.00;0.00;0.62;;;;;9.50;1.00;;;;;;2276286;61;1416;-87
2023/11/28 03:40:42;0.00;0.00;0.62;0.00;0.00;0.62;;;;;9.60;1.00;;;;;;2276465;61;1146;-87
2023/11/28 03:43:12;0.00;0.00;0.62;0.00;0.00;0.62;;;;;9.50;1.00;;;;;;2276472;61;1108;-88
2023/11/28 03:45:39;5238.00;0.02;9.70;0.00;0.00;0.62;;;;;9.20;1.00;;;;;;2276428;61;1935;-89
2023/11/28 03:48:06;27312.00;0.09;47.93;0.00;0.00;0.62;;;;;9.00;1.00;;;;;;2276453;61;940;-86
2023/11/28 03:50:33;34963.00;0.12;61.17;0.00;0.00;0.62;;;;;9.00;1.00;;;;;;2276426;61;1043;-88
2023/11/28 03:53:01;29379.00;0.10;51.51;0.00;0.00;0.62;;;;;8.80;1.00;;;;;;2276452;61;1257;-88
2023/11/28 03:55:28;172441.00;0.57;298.47;0.00;0.00;0.62;;;;;8.70;1.00;;;;;;2276383;61;1449;-87
2023/11/28 03:57:55;14699.00;0.05;26.09;0.00;0.00;0.62;;;;;8.70;1.00;;;;;;2276315;61;1200;-88
2023/11/28 04:00:22;92565.00;0.31;160.74;0.00;0.00;0.62;;;;;8.70;1.00;;;;;;2276193;61;1114;-88
2023/11/28 04:02:49;24989.00;0.08;43.91;0.00;0.00;0.62;;;;;8.60;1.00;;;;;;2276672;61;1047;-88
2023/11/28 04:05:17;0.00;0.00;0.62;0.00;0.00;0.62;;;;;8.60;1.00;;;;;;2276722;61;1919;-87
2023/11/28 04:07:44;14686.00;0.05;26.07;0.00;0.00;0.62;;;;;8.60;1.00;;;;;;2276731;61;1081;-88
2023/11/28 04:10:13;21343.00;0.07;37.60;0.00;0.00;0.62;;;;;8.70;1.00;;;;;;2276707;61;1050;-88
2023/11/28 04:12:40;16465.00;0.05;29.15;0.00;0.00;0.62;;;;;8.70;1.00;;;;;;2276728;61;1042;-87
2023/11/28 04:15:07;21889.00;0.07;38.54;0.00;0.00;0.62;;;;;8.60;1.00;;;;;;2276618;61;1378;-86
2023/11/28 04:17:34;24940.00;0.08;43.82;0.00;0.00;0.62;;;;;8.70;1.00;;;;;;2276611;61;952;-88
2023/11/28 04:20:01;177872.00;0.59;307.82;0.00;0.00;0.62;;;;;8.90;1.00;;;;;;2276706;61;1106;-86
2023/11/28 04:22:28;146225.00;0.49;253.30;59698.00;0.20;103.95;;;;;8.90;1.00;;;;;;2276593;61;1068;-86
2023/11/28 04:24:55;0.00;0.00;0.62;0.00;0.00;0.62;;;;;9.00;1.00;;;;;;2276698;61;1927;-87
2023/11/28 04:27:23;118266.00;0.39;205.09;0.00;0.00;0.62;;;;;8.90;1.00;;;;;;2276446;61;936;-88
2023/11/28 04:29:50;18038.00;0.06;31.87;0.00;0.00;0.62;;;;;9.00;1.00;;;;;;2276693;61;983;-87
2023/11/28 04:32:17;9446.00;0.03;16.99;0.00;0.00;0.62;;;;;9.00;1.00;;;;;;2276565;61;1126;-88
2023/11/28 04:34:44;0.00;0.00;0.62;0.00;0.00;0.62;;;;;9.00;1.00;;;;;;2276579;61;1321;-87
2023/11/28 04:37:11;15283.00;0.05;27.10;0.00;0.00;0.62;;;;;8.80;1.00;;;;;;2276613;61;1004;-88
2023/11/28 04:39:37;5239.00;0.02;9.70;0.00;0.00;0.62;;;;;8.80;1.00;;;;;;2276623;61;1089;-86
2023/11/28 04:42:05;36406.00;0.12;63.67;0.00;0.00;0.62;;;;;9.00;1.00;;;;;;2276556;61;1535;-87
2023/11/28 04:44:33;23136.00;0.08;40.70;0.00;0.00;0.62;;;;;9.10;1.00;;;;;;2276527;61;1919;-88
2023/11/28 04:46:59;96940.00;0.32;168.29;0.00;0.00;0.62;;;;;9.00;1.00;;;;;;2276549;61;1543;-87
2023/11/28 04:49:26;1402.00;0.00;3.05;0.00;0.00;0.62;;;;;9.20;1.00;;;;;;2276542;61;1011;-87
2023/11/28 04:51:53;230507.00;0.77;398.42;29884.00;0.10;52.38;;;;;9.00;1.00;;;;;;2276542;61;923;-87
2023/11/28 04:54:20;69637.00;0.23;121.13;0.00;0.00;0.62;;;;;8.50;1.00;;;;;;2276581;61;1005;-87
2023/11/28 04:56:47;0.00;0.00;0.62;0.00;0.00;0.62;;;;;8.30;1.00;;;;;;2276517;61;1569;-88
2023/11/28 04:59:15;92306.00;0.31;160.29;0.00;0.00;0.62;;;;;8.40;1.00;;;;;;2276530;61;964;-88
2023/11/28 05:01:47;0.00;0.00;0.62;0.00;0.00;0.62;;;;;8.80;1.00;;;;;;2276468;61;1590;-87
2023/11/28 05:04:15;71486.00;0.24;124.33;0.00;0.00;0.62;;;;;8.80;1.00;;;;;;2276530;61;1913;-87
2023/11/28 05:06:43;113109.00;0.38;196.19;5606.00;0.02;10.34;;;;;9.10;1.00;;;;;;2276567;61;1251;-87
2023/11/28 05:09:11;0.00;0.00;0.62;0.00;0.00;0.62;;;;;9.20;1.00;;;;;;2295900;39;3572;-87
2023/11/28 05:11:38;0.00;0.00;0.62;0.00;0.00;0.62;;;;;9.20;1.00;;;;;;2280452;60;2207;-88
2023/11/28 05:14:05;167751.00;0.56;290.39;0.00;0.00;0.62;;;;;9.20;1.00;;;;;;2287722;55;3721;-88
2023/11/28 05:16:32;148949.00;0.50;258.00;0.00;0.00;0.62;;;;;9.30;1.00;;;;;;2277713;61;1277;-88
2023/11/28 05:19:00;174168.00;0.58;301.45;0.00;0.00;0.62;;;;;9.50;1.00;;;;;;2276425;61;1518;-87
2023/11/28 05:21:27;258167.00;0.86;446.00;0.00;0.00;0.62;;;;;9.60;1.00;;;;;;2276384;61;1106;-85
2023/11/28 05:23:54;304865.00;1.02;526.28;19262.00;0.06;33.99;;;;;9.40;1.00;;;;;;2276494;61;1148;-87
2023/11/28 05:26:21;74450.00;0.25;129.45;0.00;0.00;0.62;;;;;9.50;1.00;;;;;;2276425;61;1951;-89
2023/11/28 05:28:48;9617.00;0.03;17.29;0.00;0.00;0.62;;;;;9.40;1.00;;;;;;2276454;61;1000;-87
2023/11/28 05:31:15;11075.00;0.04;19.81;0.00;0.00;0.62;;;;;9.60;1.00;;;;;;2276501;61;1012;-86
2023/11/28 05:33:42;13512.00;0.05;24.03;0.00;0.00;0.62;;;;;9.50;1.00;;;;;;2276519;61;878;-87
2023/11/28 05:36:10;45409.00;0.15;79.25;0.00;0.00;0.62;;;;;9.40;1.00;;;;;;2276473;61;1313;-87
2023/11/28 05:38:37;49435.00;0.16;86.21;0.00;0.00;0.62;;;;;9.40;1.00;;;;;;2276351;61;2286;-86
2023/11/28 05:41:04;18107.00;0.06;31.99;0.00;0.00;0.62;;;;;9.50;1.00;;;;;;2276436;61;1451;-87
2023/11/28 05:43:32;0.00;0.00;0.62;0.00;0.00;0.62;;;;;9.70;1.00;;;;;;2276419;61;2283;-89
2023/11/28 05:46:00;22363.00;0.07;39.36;0.00;0.00;0.62;;;;;10.00;1.00;;;;;;2276320;61;1914;-84
2023/11/28 05:48:27;45598.00;0.15;79.57;0.00;0.00;0.62;;;;;10.20;1.00;;;;;;2276405;61;1482;-87
2023/11/28 05:50:54;13139.00;0.04;23.39;0.00;0.00;0.62;;;;;10.30;1.00;;;;;;2276459;61;906;-88
2023/11/28 05:53:22;10118.00;0.03;18.15;0.00;0.00;0.62;;;;;10.20;1.00;;;;;;2276459;61;1029;-88
2023/11/28 05:55:49;73385.00;0.24;127.61;0.00;0.00;0.62;;;;;10.10;1.00;;;;;;2276249;61;1286;-86
2023/11/28 05:58:16;125093.00;0.42;216.87;10696.00;0.04;19.15;;;;;10.30;1.00;;;;;;2276294;61;1618;-87
2023/11/28 06:00:43;47028.00;0.16;82.05;0.00;0.00;0.62;;;;;10.50;1.00;;;;;;2276397;61;1033;-88
2023/11/28 06:03:10;68165.00;0.23;118.59;0.00;0.00;0.62;;;;;10.60;1.00;;;;;;2276349;61;2185;-86
2023/11/28 06:05:37;22296.00;0.07;39.25;0.00;0.00;0.62;;;;;10.40;1.00;;;;;;2276140;61;2013;-87
2023/11/28 06:08:04;0.00;0.00;0.62;0.00;0.00;0.62;;;;;10.40;1.00;;;;;;2276361;61;993;-85
2023/11/28 06:10:32;40533.00;0.14;70.81;0.00;0.00;0.62;;;;;10.20;1.00;;;;;;2276282;61;937;-86
2023/11/28 06:12:59;4503.00;0.02;8.42;0.00;0.00;0.62;;;;;10.10;1.00;;;;;;2276293;61;1579;-84
2023/11/28 06:15:26;117765.00;0.39;204.23;11654.00;0.04;20.81;;;;;9.90;1.00;;;;;;2276234;61;1353;-86
2023/11/28 06:17:53;365335.00;1.22;630.22;0.00;0.00;0.62;;;;;9.80;1.00;;;;;;2276315;61;1794;-87
2023/11/28 06:20:20;761895.00;2.54;1314.75;101101.00;0.34;175.47;;;;;9.40;1.00;;;;;;2276316;61;1136;-86
2023/11/28 06:22:48;1405719.00;4.69;2466.93;64937.00;0.22;113.01;;;;;9.40;1.00;;;;;;2276081;61;1012;-87
2023/11/28 06:25:15;760531.00;2.54;1312.37;56318.00;0.19;98.11;;;;;9.70;1.00;;;;;;2276241;61;1920;-87
2023/11/28 06:27:44;689445.00;2.30;1188.94;30471.00;0.10;53.40;;;;;10.00;1.00;;;;;;2276243;61;1031;-86
2023/11/28 06:30:12;1039743.00;3.47;1802.99;129815.00;0.43;225.01;;;;;10.10;1.00;;;;;;2276227;61;1130;-87
2023/11/28 06:32:39;989301.00;3.30;1713.53;141325.00;0.47;244.86;;;;;10.10;1.00;;;;;;2276154;61;1541;-87
2023/11/28 06:35:10;1271156.00;4.24;2219.41;232003.00;0.77;400.99;;;;;9.50;1.00;;;;;;2276184;61;1336;-88
2023/11/28 06:37:38;1451244.00;4.84;2551.71;172042.00;0.57;297.78;;;;;9.60;1.00;;;;;;2276190;61;2005;-87
2023/11/28 06:40:06;1133072.00;3.78;1969.67;143533.00;0.48;248.66;;;;;9.60;1.00;;;;;;2276212;61;1105;-88
2023/11/28 06:42:33;1368823.00;4.56;2398.62;199036.00;0.66;344.26;;;;;9.40;1.00;;;;;;2276238;61;1044;-87
2023/11/28 06:45:02;635504.00;2.12;1095.56;115077.00;0.38;199.59;;;;;9.10;1.00;;;;;;2276154;61;1942;-86
2023/11/28 06:47:28;119986992.00;399.96;69977208.00;119763.00;0.40;207.67;;;;;9.00;1.00;;;;;;2276180;61;1711;-86
2023/11/28 06:49:56;117897824.00;392.99;66382076.00;136239.00;0.45;236.09;;;;;9.00;1.00;;;;;;2276187;61;1074;-88
2023/11/28 06:52:23;983419.00;3.28;1703.13;107274.00;0.36;186.13;;;;;9.30;1.00;;;;;;2276280;61;1142;-87
2023/11/28 06:54:50;653192.00;2.18;1126.16;137344.00;0.46;237.99;;;;;9.40;1.00;;;;;;2276191;61;1307;-87
2023/11/28 06:57:17;453977.00;1.51;782.62;90865.00;0.30;157.80;;;;;9.50;1.00;;;;;;2276170;61;1138;-88
2023/11/28 06:59:44;117384192.00;391.28;65517484.00;116932504.00;389.78;64763416.00;;;;;9.40;1.00;;;;;;2276240;61;1103;-87
2023/11/28 07:02:12;456992.00;1.52;787.81;82272.00;0.27;142.96;;;;;9.40;1.00;;;;;;2276221;61;1035;-87
2023/11/28 07:04:39;463320.00;1.54;798.70;90354.00;0.30;156.92;;;;;9.30;1.00;;;;;;2276212;61;1283;-87
2023/11/28 07:07:06;370336.00;1.23;638.81;85552.00;0.29;148.63;;;;;9.00;1.00;;;;;;2276182;61;1932;-88
2023/11/28 07:09:35;386572.00;1.29;666.72;93324.00;0.31;162.05;;;;;9.00;1.00;;;;;;2276238;61;1781;-88
2023/11/28 07:12:02;449014.00;1.50;774.09;80391.00;0.27;139.71;;;;;9.10;1.00;;;;;;2276150;61;897;-86
2023/11/28 07:14:29;340646.00;1.14;587.78;94418.00;0.31;163.94;;;;;9.40;1.00;;;;;;2276141;61;1055;-86
2023/11/28 07:16:56;370638.00;1.24;639.33;85957.00;0.29;149.33;;;;;9.30;1.00;;;;;;2276165;61;1292;-87
2023/11/28 07:19:24;288557.00;0.96;498.25;105891.00;0.35;183.74;;;;;8.60;1.00;;;;;;2276144;61;975;-87
2023/11/28 07:21:51;239202.00;0.80;413.38;89461.00;0.30;155.38;;;;;9.00;1.00;;;;;;2276160;61;1564;-86
2023/11/28 07:24:18;254227.00;0.85;439.22;91349.00;0.30;158.64;;;;;9.30;1.00;;;;;;2276058;61;1071;-87
2023/11/28 07:26:45;203141.00;0.68;351.33;90720.00;0.30;157.55;;;;;9.40;1.00;;;;;;2276101;61;2000;-87
2023/11/28 07:29:13;182663.00;0.61;316.08;90355.00;0.30;156.92;;;;;9.10;1.00;;;;;;2276042;61;1051;-87
2023/11/28 07:34:09;186813.00;0.62;323.22;99931.00;0.33;173.45;;;;;8.80;1.00;;;;;;2282019;60;1323;-89
2023/11/28 07:36:37;327821.00;1.09;565.74;107504.00;0.36;186.52;;;;;8.40;1.00;;;;;;2277340;61;1415;-89
2023/11/28 07:39:04;197028.00;0.66;340.81;96051.00;0.32;166.75;;;;;8.40;1.00;;;;;;2276775;61;2228;-89
2023/11/28 07:41:31;202383.00;0.67;350.03;117268.00;0.39;203.37;;;;;8.50;1.00;;;;;;2276837;61;960;-87
2023/11/28 07:43:58;177292.00;0.59;306.83;88854.00;0.30;154.33;;;;;8.80;1.00;;;;;;2276785;61;2186;-88
2023/11/28 07:46:26;12771.00;0.04;22.75;0.00;0.00;0.62;;;;;9.00;1.00;;;;;;2276623;61;2008;-87
2023/11/28 07:48:53;96547.00;0.32;167.61;0.00;0.00;0.62;;;;;9.00;1.00;;;;;;2276697;61;1098;-87
2023/11/28 07:53:51;303516.00;1.01;523.96;0.00;0.00;0.62;;;;;8.00;1.00;;;;;;2282550;60;1659;-88
2023/11/28 07:56:18;34512.00;0.12;60.39;0.00;0.00;0.62;;;;;8.10;1.00;;;;;;2277716;60;1447;-87
2023/11/28 07:58:46;25631.00;0.09;45.02;0.00;0.00;0.62;;;;;8.40;1.00;;;;;;2276705;61;1621;-87
2023/11/28 08:03:42;32166.00;0.11;56.33;0.00;0.00;0.62;;;;;7.60;1.00;;;;;;2298114;39;3521;-88
2023/11/28 08:08:42;58966.00;0.20;102.69;0.00;0.00;0.62;;;;;8.00;1.00;;;;;;2282200;60;1342;-89
2023/11/28 08:13:42;3313.00;0.01;6.36;0.00;0.00;0.62;;;;;8.10;1.00;;;;;;2286236;60;1327;-87
2023/11/28 08:18:38;418993.00;1.40;722.46;0.00;0.00;0.62;;;;;7.10;1.00;;;;;;2279445;61;1199;-90
2023/11/28 08:23:37;363567.00;1.21;627.18;0.00;0.00;0.62;;;;;6.90;1.00;;;;;;2286223;60;1417;-88
2023/11/28 08:28:32;129068.00;0.43;223.72;0.00;0.00;0.62;;;;;7.40;1.00;;;;;;2338800;55;3687;-88
2023/11/28 08:36:00;181324.00;0.60;313.77;0.00;0.00;0.62;;;;;6.50;1.00;;;;;;2315427;55;3577;-88
2023/11/28 08:38:29;79516.00;0.27;138.20;0.00;0.00;0.62;;;;;6.70;1.00;;;;;;2280319;60;1063;-87
2023/11/28 08:43:23;345470.00;1.15;596.08;0.00;0.00;0.62;;;;;7.80;1.00;;;;;;1997441;40;3407;-87
2023/11/28 08:48:20;330824.00;1.10;570.90;0.00;0.00;0.62;;;;;7.50;1.00;;;;;;2286658;60;1378;-87
2023/11/28 08:50:47;167927.00;0.56;290.70;0.00;0.00;0.62;;;;;7.60;1.00;;;;;;2288209;56;3796;-86
2023/11/28 08:53:15;0.00;0.00;0.62;0.00;0.00;0.62;;;;;7.90;1.00;;;;;;2280585;60;1170;-87
2023/11/28 08:58:12;162434.00;0.54;281.23;0.00;0.00;0.62;;;;;7.90;1.00;;;;;;2350982;55;3616;-87
2023/11/28 09:13:12;269518.00;0.90;465.52;75051.00;0.25;130.49;;;;;5.90;1.00;;;;;;2286022;60;1388;-87
2023/11/28 09:15:39;25101.00;0.08;44.10;0.00;0.00;0.62;;;;;6.60;1.00;;;;;;2282629;60;1393;-85
2023/11/28 09:20:37;127275.00;0.42;220.63;0.00;0.00;0.62;;;;;6.60;1.00;;;;;;2286182;60;1394;-88
2023/11/28 09:23:04;0.00;0.00;0.62;0.00;0.00;0.62;;;;;7.30;1.00;;;;;;2284609;60;1633;-87
2023/11/28 09:25:31;109807.00;0.37;190.50;0.00;0.00;0.62;;;;;7.80;1.00;;;;;;2282894;60;1923;-87
2023/11/28 09:27:58;40502.00;0.14;70.76;0.00;0.00;0.62;;;;;8.00;1.00;;;;;;2280449;61;1082;-88
2023/11/28 09:30:26;140483.00;0.47;243.40;0.00;0.00;0.62;;;;;8.40;1.00;;;;;;2280445;61;1107;-87
2023/11/28 09:32:53;97066.00;0.32;168.51;0.00;0.00;0.62;;;;;8.50;1.00;;;;;;2280497;61;1013;-88
2023/11/28 09:35:20;0.00;0.00;0.62;0.00;0.00;0.62;;;;;8.50;1.00;;;;;;2280429;61;1343;-88
2023/11/28 09:42:51;11771.00;0.04;21.02;0.00;0.00;0.62;;;;;7.70;1.00;;;;;;2286327;60;1714;-87
2023/11/28 09:45:20;55420.00;0.18;96.56;0.00;0.00;0.62;;;;;7.80;1.00;;;;;;2283255;60;2358;-87
2023/11/28 09:47:49;0.00;0.00;0.62;0.00;0.00;0.62;;;;;8.20;1.00;;;;;;2280413;61;2183;-86
2023/11/28 09:50:17;36859.00;0.12;64.45;0.00;0.00;0.62;;;;;8.40;1.00;;;;;;2280446;61;951;-87
2023/11/28 09:52:47;0.00;0.00;0.62;0.00;0.00;0.62;;;;;8.60;1.00;;;;;;2280374;61;1071;-87
2023/11/28 09:55:16;45645.00;0.15;79.65;0.00;0.00;0.62;;;;;8.70;1.00;;;;;;2280429;61;1417;-85
2023/11/28 09:57:47;127688.00;0.43;221.34;0.00;0.00;0.62;;;;;8.50;1.00;;;;;;2280469;61;1032;-87
2023/11/28 10:00:18;6190.00;0.02;11.35;0.00;0.00;0.62;;;;;8.90;1.00;;;;;;2280378;61;1160;-88
2023/11/28 10:02:45;221866.00;0.74;383.55;0.00;0.00;0.62;;;;;9.00;1.00;;;;;;2280430;61;1119;-87
2023/11/28 10:05:14;39859.00;0.13;69.64;0.00;0.00;0.62;;;;;8.50;1.00;;;;;;2280382;61;1326;-86
2023/11/28 10:07:45;2588.00;0.01;5.11;0.00;0.00;0.62;;;;;8.70;1.00;;;;;;2280384;61;1936;-86
2023/11/28 10:10:14;2358.00;0.01;4.71;0.00;0.00;0.62;;;;;7.70;1.00;;;;;;2280349;61;944;-87
2023/11/28 10:12:41;26189.00;0.09;45.99;0.00;0.00;0.62;;;;;7.60;1.00;;;;;;2280435;61;1023;-86
2023/11/28 10:15:10;42817.00;0.14;74.76;0.00;0.00;0.62;;;;;7.70;1.00;;;;;;2280348;61;1332;-87
2023/11/28 10:17:37;40901.00;0.14;71.45;0.00;0.00;0.62;;;;;8.30;1.00;;;;;;2280294;61;1549;-87
2023/11/28 10:20:06;10692.00;0.04;19.15;0.00;0.00;0.62;;;;;8.50;1.00;;;;;;2280402;61;928;-86
2023/11/28 10:22:35;7311.00;0.02;13.29;0.00;0.00;0.62;;;;;8.70;1.00;;;;;;2280388;61;1025;-87
2023/11/28 10:25:07;23378.00;0.08;41.12;0.00;0.00;0.62;;;;;8.40;1.00;;;;;;2280376;61;1354;-86
2023/11/28 10:27:39;46307.00;0.15;80.80;0.00;0.00;0.62;;;;;8.40;1.00;;;;;;2282245;55;3589;-88
2023/11/28 10:30:10;0.00;0.00;0.62;0.00;0.00;0.62;;;;;8.30;1.00;;;;;;2280228;60;1057;-89
2023/11/28 10:35:09;191744.00;0.64;331.71;0.00;0.00;0.62;;;;;8.40;1.00;;;;;;2281486;60;1300;-88
2023/11/28 10:37:38;131631.00;0.44;228.14;0.00;0.00;0.62;;;;;8.60;1.00;;;;;;2276233;61;1527;-87
2023/11/28 10:40:10;48126.00;0.16;83.95;0.00;0.00;0.62;;;;;8.50;1.00;;;;;;2276148;61;1097;-88
2023/11/28 10:42:40;58538.00;0.20;101.95;0.00;0.00;0.62;;;;;7.90;1.00;;;;;;2276213;61;1471;-88
2023/11/28 10:45:10;41795.00;0.14;72.99;0.00;0.00;0.62;;;;;8.00;1.00;;;;;;2276138;61;1285;-88
2023/11/28 10:47:39;38735.00;0.13;67.70;0.00;0.00;0.62;;;;;8.20;1.00;;;;;;2269336;61;1992;-88
2023/11/28 10:50:07;91835.00;0.31;159.48;0.00;0.00;0.62;;;;;8.40;1.00;;;;;;2354977;40;3752;-86
2023/11/28 10:52:39;65228.00;0.22;113.51;0.00;0.00;0.62;;;;;8.00;1.00;;;;;;2282011;55;3778;-89
2023/11/28 10:55:09;26083.00;0.09;45.80;0.00;0.00;0.62;;;;;8.20;1.00;;;;;;2279294;60;1285;-88
2023/11/28 10:57:54;20354.00;0.07;35.88;0.00;0.00;0.62;;;;;8.50;1.00;;;;;;2276238;61;1156;-88
2023/11/28 11:00:26;9076.00;0.03;16.35;0.00;0.00;0.62;;;;;8.90;1.00;;;;;;2276280;61;1077;-88
2023/11/28 11:02:53;189636.00;0.63;328.08;0.00;0.00;0.62;;;;;8.90;1.00;;;;;;2285007;40;3614;-88
2023/11/28 11:05:21;63571.00;0.21;110.65;0.00;0.00;0.62;;;;;8.60;1.00;;;;;;2279001;60;1376;-86
2023/11/28 11:07:50;274129.00;0.91;473.44;0.00;0.00;0.62;;;;;9.00;1.00;;;;;;2276185;61;1925;-87
2023/11/28 11:10:18;290131.00;0.97;500.95;0.00;0.00;0.62;;;;;8.50;1.00;;;;;;2276764;61;2379;-87
2023/11/28 11:15:24;68994.00;0.23;120.02;0.00;0.00;0.62;;;;;7.80;1.00;;;;;;2285466;60;1457;-86
2023/11/28 11:18:03;14817.00;0.05;26.29;0.00;0.00;0.62;;;;;7.70;1.00;;;;;;2280735;61;964;-85